sensor_id;sensor_type;location;lat;lon;timestamp;P1;durP1;ratioP1;P2;durP2;ratioP2
70707;SDS011;58277;47.316;18.908;2023-09-12T00:00:29;18.10;;;9.10;;
70707;SDS011;58277;47.316;18.908;2023-09-12T00:02:52;20.23;;;9.38;;
70707;SDS011;58277;47.316;18.908;2023-09-12T00:05:14;14.77;;;8.45;;
70707;SDS011;58277;47.316;18.908;2023-09-12T00:07:38;16.33;;;8.60;;
70707;SDS011;58277;47.316;18.908;2023-09-12T00:10:02;19.85;;;8.68;;
70707;SDS011;58277;47.316;18.908;2023-09-12T00:12:25;17.35;;;8.63;;
70707;SDS011;58277;47.316;18.908;2023-09-12T00:14:47;15.52;;;8.43;;
70707;SDS011;58277;47.316;18.908;2023-09-12T00:17:10;19.77;;;8.35;;
70707;SDS011;58277;47.316;18.908;2023-09-12T00:19:33;15.52;;;8.25;;
70707;SDS011;58277;47.316;18.908;2023-09-12T00:21:55;18.08;;;8.98;;
70707;SDS011;58277;47.316;18.908;2023-09-12T00:24:18;16.50;;;8.90;;
70707;SDS011;58277;47.316;18.908;2023-09-12T00:26:41;17.10;;;8.85;;
70707;SDS011;58277;47.316;18.908;2023-09-12T00:29:04;21.98;;;8.88;;
70707;SDS011;58277;47.316;18.908;2023-09-12T00:31:26;24.13;;;9.18;;
70707;SDS011;58277;47.316;18.908;2023-09-12T00:33:50;21.00;;;8.80;;
70707;SDS011;58277;47.316;18.908;2023-09-12T00:36:12;18.75;;;9.30;;
70707;SDS011;58277;47.316;18.908;2023-09-12T00:38:35;21.10;;;8.95;;
70707;SDS011;58277;47.316;18.908;2023-09-12T00:40:58;16.42;;;9.18;;
70707;SDS011;58277;47.316;18.908;2023-09-12T00:43:21;16.58;;;9.63;;
70707;SDS011;58277;47.316;18.908;2023-09-12T00:45:43;19.60;;;9.90;;
70707;SDS011;58277;47.316;18.908;2023-09-12T00:48:06;20.67;;;10.27;;
70707;SDS011;58277;47.316;18.908;2023-09-12T00:50:31;17.15;;;9.90;;
70707;SDS011;58277;47.316;18.908;2023-09-12T00:52:55;20.30;;;9.95;;
70707;SDS011;58277;47.316;18.908;2023-09-12T00:55:19;19.00;;;9.98;;
70707;SDS011;58277;47.316;18.908;2023-09-12T00:57:41;18.10;;;10.02;;
70707;SDS011;58277;47.316;18.908;2023-09-12T01:00:05;19.77;;;10.07;;
70707;SDS011;58277;47.316;18.908;2023-09-12T01:02:33;20.00;;;9.68;;
70707;SDS011;58277;47.316;18.908;2023-09-12T01:04:56;23.23;;;9.85;;
70707;SDS011;58277;47.316;18.908;2023-09-12T01:07:19;18.75;;;9.98;;
70707;SDS011;58277;47.316;18.908;2023-09-12T01:09:42;17.92;;;9.38;;
70707;SDS011;58277;47.316;18.908;2023-09-12T01:12:05;17.13;;;9.52;;
70707;SDS011;58277;47.316;18.908;2023-09-12T01:14:28;20.80;;;9.45;;
70707;SDS011;58277;47.316;18.908;2023-09-12T01:16:52;18.85;;;9.75;;
70707;SDS011;58277;47.316;18.908;2023-09-12T01:19:14;21.10;;;9.60;;
70707;SDS011;58277;47.316;18.908;2023-09-12T01:26:59;18.27;;;9.27;;
70707;SDS011;58277;47.316;18.908;2023-09-12T01:29:43;18.08;;;9.38;;
70707;SDS011;58277;47.316;18.908;2023-09-12T01:32:08;15.65;;;8.88;;
70707;SDS011;58277;47.316;18.908;2023-09-12T01:34:32;17.85;;;9.05;;
70707;SDS011;58277;47.316;18.908;2023-09-12T01:36:54;19.35;;;9.48;;
70707;SDS011;58277;47.316;18.908;2023-09-12T01:39:17;19.65;;;9.27;;
70707;SDS011;58277;47.316;18.908;2023-09-12T01:41:40;18.30;;;9.60;;
70707;SDS011;58277;47.316;18.908;2023-09-12T01:44:08;18.90;;;9.38;;
70707;SDS011;58277;47.316;18.908;2023-09-12T01:46:32;19.38;;;9.98;;
70707;SDS011;58277;47.316;18.908;2023-09-12T01:49:19;19.60;;;10.18;;
70707;SDS011;58277;47.316;18.908;2023-09-12T01:51:45;21.83;;;10.02;;
70707;SDS011;58277;47.316;18.908;2023-09-12T01:57:12;17.73;;;9.60;;
70707;SDS011;58277;47.316;18.908;2023-09-12T01:59:36;21.00;;;9.82;;
70707;SDS011;58277;47.316;18.908;2023-09-12T02:01:59;25.80;;;10.32;;
70707;SDS011;58277;47.316;18.908;2023-09-12T02:04:21;18.98;;;10.18;;
70707;SDS011;58277;47.316;18.908;2023-09-12T02:06:44;21.00;;;10.48;;
70707;SDS011;58277;47.316;18.908;2023-09-12T02:09:07;21.27;;;10.02;;
70707;SDS011;58277;47.316;18.908;2023-09-12T02:11:30;19.48;;;10.48;;
70707;SDS011;58277;47.316;18.908;2023-09-12T02:13:52;19.85;;;10.32;;
70707;SDS011;58277;47.316;18.908;2023-09-12T02:16:15;18.80;;;9.60;;
70707;SDS011;58277;47.316;18.908;2023-09-12T02:18:38;21.00;;;9.95;;
70707;SDS011;58277;47.316;18.908;2023-09-12T02:21:01;19.27;;;10.45;;
70707;SDS011;58277;47.316;18.908;2023-09-12T02:23:24;20.73;;;10.20;;
70707;SDS011;58277;47.316;18.908;2023-09-12T02:25:47;20.88;;;10.35;;
70707;SDS011;58277;47.316;18.908;2023-09-12T02:28:09;24.50;;;10.77;;
70707;SDS011;58277;47.316;18.908;2023-09-12T02:30:32;18.83;;;9.60;;
70707;SDS011;58277;47.316;18.908;2023-09-12T02:32:55;22.75;;;10.15;;
70707;SDS011;58277;47.316;18.908;2023-09-12T02:35:18;18.23;;;9.57;;
70707;SDS011;58277;47.316;18.908;2023-09-12T02:37:40;18.13;;;9.80;;
70707;SDS011;58277;47.316;18.908;2023-09-12T02:40:03;18.42;;;10.38;;
70707;SDS011;58277;47.316;18.908;2023-09-12T02:42:29;19.70;;;9.77;;
70707;SDS011;58277;47.316;18.908;2023-09-12T02:44:52;19.60;;;10.13;;
70707;SDS011;58277;47.316;18.908;2023-09-12T02:47:15;20.38;;;10.57;;
70707;SDS011;58277;47.316;18.908;2023-09-12T02:49:37;18.65;;;10.07;;
70707;SDS011;58277;47.316;18.908;2023-09-12T02:52:00;22.10;;;9.63;;
70707;SDS011;58277;47.316;18.908;2023-09-12T02:54:23;25.65;;;10.05;;
70707;SDS011;58277;47.316;18.908;2023-09-12T02:56:46;27.05;;;10.57;;
70707;SDS011;58277;47.316;18.908;2023-09-12T02:59:09;19.55;;;10.27;;
70707;SDS011;58277;47.316;18.908;2023-09-12T03:01:31;21.20;;;10.20;;
70707;SDS011;58277;47.316;18.908;2023-09-12T03:03:54;21.90;;;11.18;;
70707;SDS011;58277;47.316;18.908;2023-09-12T03:06:17;24.00;;;10.82;;
70707;SDS011;58277;47.316;18.908;2023-09-12T03:08:41;21.42;;;10.68;;
70707;SDS011;58277;47.316;18.908;2023-09-12T03:11:06;21.58;;;11.32;;
70707;SDS011;58277;47.316;18.908;2023-09-12T03:13:29;24.70;;;11.00;;
70707;SDS011;58277;47.316;18.908;2023-09-12T03:15:52;20.35;;;10.73;;
70707;SDS011;58277;47.316;18.908;2023-09-12T03:18:15;22.15;;;11.32;;
70707;SDS011;58277;47.316;18.908;2023-09-12T03:20:38;24.40;;;11.05;;
70707;SDS011;58277;47.316;18.908;2023-09-12T03:23:02;23.20;;;10.68;;
70707;SDS011;58277;47.316;18.908;2023-09-12T03:25:24;18.30;;;10.32;;
70707;SDS011;58277;47.316;18.908;2023-09-12T03:27:47;21.25;;;10.02;;
70707;SDS011;58277;47.316;18.908;2023-09-12T03:30:10;20.15;;;10.45;;
70707;SDS011;58277;47.316;18.908;2023-09-12T03:32:33;22.70;;;10.63;;
70707;SDS011;58277;47.316;18.908;2023-09-12T03:34:56;24.83;;;10.57;;
70707;SDS011;58277;47.316;18.908;2023-09-12T03:37:18;24.48;;;10.60;;
70707;SDS011;58277;47.316;18.908;2023-09-12T03:39:41;21.77;;;10.82;;
70707;SDS011;58277;47.316;18.908;2023-09-12T03:42:04;20.95;;;11.10;;
70707;SDS011;58277;47.316;18.908;2023-09-12T03:44:28;19.00;;;10.70;;
70707;SDS011;58277;47.316;18.908;2023-09-12T03:46:51;22.67;;;9.88;;
70707;SDS011;58277;47.316;18.908;2023-09-12T03:49:13;22.83;;;11.13;;
70707;SDS011;58277;47.316;18.908;2023-09-12T03:51:36;20.60;;;10.35;;
70707;SDS011;58277;47.316;18.908;2023-09-12T03:54:00;19.88;;;10.30;;
70707;SDS011;58277;47.316;18.908;2023-09-12T03:56:23;19.10;;;10.43;;
70707;SDS011;58277;47.316;18.908;2023-09-12T03:58:46;18.75;;;10.20;;
70707;SDS011;58277;47.316;18.908;2023-09-12T04:01:09;24.42;;;11.48;;
70707;SDS011;58277;47.316;18.908;2023-09-12T04:03:31;21.50;;;10.50;;
70707;SDS011;58277;47.316;18.908;2023-09-12T04:05:54;18.90;;;10.05;;
70707;SDS011;58277;47.316;18.908;2023-09-12T04:08:17;22.10;;;10.65;;
70707;SDS011;58277;47.316;18.908;2023-09-12T04:10:40;20.83;;;10.55;;
70707;SDS011;58277;47.316;18.908;2023-09-12T04:13:03;21.85;;;10.55;;
70707;SDS011;58277;47.316;18.908;2023-09-12T04:15:25;20.52;;;10.43;;
70707;SDS011;58277;47.316;18.908;2023-09-12T04:17:48;20.40;;;10.50;;
70707;SDS011;58277;47.316;18.908;2023-09-12T04:20:11;19.38;;;10.80;;
70707;SDS011;58277;47.316;18.908;2023-09-12T04:22:37;19.30;;;10.68;;
70707;SDS011;58277;47.316;18.908;2023-09-12T04:24:59;22.27;;;11.43;;
70707;SDS011;58277;47.316;18.908;2023-09-12T04:27:22;22.63;;;11.15;;
70707;SDS011;58277;47.316;18.908;2023-09-12T04:29:46;19.77;;;10.93;;
70707;SDS011;58277;47.316;18.908;2023-09-12T04:32:09;21.92;;;10.63;;
70707;SDS011;58277;47.316;18.908;2023-09-12T04:34:32;25.75;;;11.82;;
70707;SDS011;58277;47.316;18.908;2023-09-12T04:36:55;20.02;;;11.50;;
70707;SDS011;58277;47.316;18.908;2023-09-12T04:39:18;23.65;;;11.65;;
70707;SDS011;58277;47.316;18.908;2023-09-12T04:41:41;20.83;;;12.18;;
70707;SDS011;58277;47.316;18.908;2023-09-12T04:44:04;23.40;;;12.18;;
70707;SDS011;58277;47.316;18.908;2023-09-12T04:46:27;22.90;;;11.52;;
70707;SDS011;58277;47.316;18.908;2023-09-12T04:48:49;26.27;;;12.43;;
70707;SDS011;58277;47.316;18.908;2023-09-12T04:51:12;28.98;;;13.10;;
70707;SDS011;58277;47.316;18.908;2023-09-12T04:53:35;22.73;;;13.02;;
70707;SDS011;58277;47.316;18.908;2023-09-12T04:55:59;28.10;;;13.40;;
70707;SDS011;58277;47.316;18.908;2023-09-12T04:58:25;28.88;;;12.68;;
70707;SDS011;58277;47.316;18.908;2023-09-12T05:00:48;22.63;;;12.35;;
70707;SDS011;58277;47.316;18.908;2023-09-12T05:03:11;23.63;;;12.27;;
70707;SDS011;58277;47.316;18.908;2023-09-12T05:05:34;22.77;;;12.52;;
70707;SDS011;58277;47.316;18.908;2023-09-12T05:07:58;25.98;;;11.98;;
70707;SDS011;58277;47.316;18.908;2023-09-12T05:10:21;22.45;;;12.02;;
70707;SDS011;58277;47.316;18.908;2023-09-12T05:12:44;21.25;;;12.23;;
70707;SDS011;58277;47.316;18.908;2023-09-12T05:15:07;29.35;;;13.23;;
70707;SDS011;58277;47.316;18.908;2023-09-12T05:17:30;38.60;;;19.77;;
70707;SDS011;58277;47.316;18.908;2023-09-12T05:19:53;27.60;;;14.57;;
70707;SDS011;58277;47.316;18.908;2023-09-12T05:22:16;22.13;;;11.25;;
70707;SDS011;58277;47.316;18.908;2023-09-12T05:24:38;26.15;;;12.32;;
70707;SDS011;58277;47.316;18.908;2023-09-12T05:27:03;22.92;;;11.68;;
70707;SDS011;58277;47.316;18.908;2023-09-12T05:29:28;24.35;;;11.95;;
70707;SDS011;58277;47.316;18.908;2023-09-12T05:31:50;21.73;;;11.82;;
70707;SDS011;58277;47.316;18.908;2023-09-12T05:34:13;23.17;;;11.48;;
70707;SDS011;58277;47.316;18.908;2023-09-12T05:36:36;28.60;;;12.13;;
70707;SDS011;58277;47.316;18.908;2023-09-12T05:38:59;24.23;;;13.32;;
70707;SDS011;58277;47.316;18.908;2023-09-12T05:41:22;25.02;;;12.25;;
70707;SDS011;58277;47.316;18.908;2023-09-12T05:43:46;22.63;;;11.70;;
70707;SDS011;58277;47.316;18.908;2023-09-12T05:46:09;20.90;;;11.30;;
70707;SDS011;58277;47.316;18.908;2023-09-12T05:48:32;23.27;;;11.50;;
70707;SDS011;58277;47.316;18.908;2023-09-12T05:50:55;22.75;;;11.98;;
70707;SDS011;58277;47.316;18.908;2023-09-12T05:53:18;23.75;;;12.45;;
70707;SDS011;58277;47.316;18.908;2023-09-12T05:55:41;26.40;;;12.15;;
70707;SDS011;58277;47.316;18.908;2023-09-12T05:58:04;22.35;;;12.93;;
70707;SDS011;58277;47.316;18.908;2023-09-12T06:00:29;19.05;;;12.20;;
70707;SDS011;58277;47.316;18.908;2023-09-12T06:02:52;24.52;;;11.93;;
70707;SDS011;58277;47.316;18.908;2023-09-12T06:05:15;22.33;;;12.65;;
70707;SDS011;58277;47.316;18.908;2023-09-12T06:07:38;21.02;;;11.35;;
70707;SDS011;58277;47.316;18.908;2023-09-12T06:10:03;20.63;;;11.48;;
70707;SDS011;58277;47.316;18.908;2023-09-12T06:12:26;22.65;;;11.75;;
70707;SDS011;58277;47.316;18.908;2023-09-12T06:14:50;20.33;;;11.45;;
70707;SDS011;58277;47.316;18.908;2023-09-12T06:17:13;19.10;;;11.77;;
70707;SDS011;58277;47.316;18.908;2023-09-12T06:19:36;22.25;;;12.15;;
70707;SDS011;58277;47.316;18.908;2023-09-12T06:21:59;25.10;;;11.32;;
70707;SDS011;58277;47.316;18.908;2023-09-12T06:24:22;22.35;;;11.60;;
70707;SDS011;58277;47.316;18.908;2023-09-12T06:26:45;22.30;;;11.35;;
70707;SDS011;58277;47.316;18.908;2023-09-12T06:29:08;26.88;;;11.70;;
70707;SDS011;58277;47.316;18.908;2023-09-12T06:31:31;25.77;;;11.40;;
70707;SDS011;58277;47.316;18.908;2023-09-12T06:33:54;24.67;;;11.70;;
70707;SDS011;58277;47.316;18.908;2023-09-12T06:36:17;21.27;;;11.52;;
70707;SDS011;58277;47.316;18.908;2023-09-12T06:38:40;20.92;;;12.02;;
70707;SDS011;58277;47.316;18.908;2023-09-12T06:41:04;21.13;;;11.88;;
70707;SDS011;58277;47.316;18.908;2023-09-12T06:43:26;20.13;;;11.23;;
70707;SDS011;58277;47.316;18.908;2023-09-12T06:45:49;21.35;;;10.60;;
70707;SDS011;58277;47.316;18.908;2023-09-12T06:48:13;18.15;;;10.30;;
70707;SDS011;58277;47.316;18.908;2023-09-12T06:50:37;20.17;;;10.10;;
70707;SDS011;58277;47.316;18.908;2023-09-12T06:53:13;21.95;;;10.35;;
70707;SDS011;58277;47.316;18.908;2023-09-12T06:55:35;20.27;;;10.15;;
70707;SDS011;58277;47.316;18.908;2023-09-12T06:57:58;19.13;;;11.00;;
70707;SDS011;58277;47.316;18.908;2023-09-12T07:00:22;19.67;;;10.15;;
70707;SDS011;58277;47.316;18.908;2023-09-12T07:02:45;18.15;;;10.23;;
70707;SDS011;58277;47.316;18.908;2023-09-12T07:05:08;17.75;;;10.50;;
70707;SDS011;58277;47.316;18.908;2023-09-12T07:07:31;20.83;;;10.07;;
70707;SDS011;58277;47.316;18.908;2023-09-12T07:09:55;21.27;;;10.77;;
70707;SDS011;58277;47.316;18.908;2023-09-12T07:12:33;24.42;;;11.82;;
70707;SDS011;58277;47.316;18.908;2023-09-12T07:14:56;18.77;;;10.98;;
70707;SDS011;58277;47.316;18.908;2023-09-12T07:17:19;20.85;;;10.55;;
70707;SDS011;58277;47.316;18.908;2023-09-12T07:19:42;21.52;;;11.18;;
70707;SDS011;58277;47.316;18.908;2023-09-12T07:22:06;23.40;;;11.15;;
70707;SDS011;58277;47.316;18.908;2023-09-12T07:24:29;25.67;;;11.35;;
70707;SDS011;58277;47.316;18.908;2023-09-12T07:26:52;21.10;;;10.93;;
70707;SDS011;58277;47.316;18.908;2023-09-12T07:29:15;20.23;;;11.18;;
70707;SDS011;58277;47.316;18.908;2023-09-12T07:31:37;26.13;;;10.90;;
70707;SDS011;58277;47.316;18.908;2023-09-12T07:34:00;23.02;;;11.90;;
70707;SDS011;58277;47.316;18.908;2023-09-12T07:36:23;19.10;;;11.98;;
70707;SDS011;58277;47.316;18.908;2023-09-12T07:38:46;23.25;;;12.68;;
70707;SDS011;58277;47.316;18.908;2023-09-12T07:41:09;30.33;;;12.88;;
70707;SDS011;58277;47.316;18.908;2023-09-12T07:43:32;27.27;;;13.30;;
70707;SDS011;58277;47.316;18.908;2023-09-12T07:45:57;25.73;;;13.35;;
70707;SDS011;58277;47.316;18.908;2023-09-12T07:48:21;22.83;;;12.65;;
70707;SDS011;58277;47.316;18.908;2023-09-12T07:50:45;29.52;;;13.38;;
70707;SDS011;58277;47.316;18.908;2023-09-12T07:53:07;25.23;;;12.93;;
70707;SDS011;58277;47.316;18.908;2023-09-12T07:55:30;25.23;;;13.30;;
70707;SDS011;58277;47.316;18.908;2023-09-12T07:57:58;29.17;;;12.52;;
70707;SDS011;58277;47.316;18.908;2023-09-12T08:00:21;23.02;;;13.02;;
70707;SDS011;58277;47.316;18.908;2023-09-12T08:02:44;25.75;;;12.90;;
70707;SDS011;58277;47.316;18.908;2023-09-12T08:05:08;28.35;;;12.43;;
70707;SDS011;58277;47.316;18.908;2023-09-12T08:07:31;24.23;;;12.70;;
70707;SDS011;58277;47.316;18.908;2023-09-12T08:09:57;22.08;;;11.27;;
70707;SDS011;58277;47.316;18.908;2023-09-12T08:12:21;24.52;;;10.98;;
70707;SDS011;58277;47.316;18.908;2023-09-12T08:14:45;24.00;;;11.68;;
70707;SDS011;58277;47.316;18.908;2023-09-12T08:17:08;22.15;;;11.48;;
70707;SDS011;58277;47.316;18.908;2023-09-12T08:19:31;18.17;;;10.55;;
70707;SDS011;58277;47.316;18.908;2023-09-12T08:21:56;17.33;;;10.43;;
70707;SDS011;58277;47.316;18.908;2023-09-12T08:24:19;23.08;;;11.02;;
70707;SDS011;58277;47.316;18.908;2023-09-12T08:26:42;21.75;;;10.70;;
70707;SDS011;58277;47.316;18.908;2023-09-12T08:29:05;17.00;;;10.15;;
70707;SDS011;58277;47.316;18.908;2023-09-12T08:31:28;21.02;;;10.05;;
70707;SDS011;58277;47.316;18.908;2023-09-12T08:33:51;19.90;;;9.00;;
70707;SDS011;58277;47.316;18.908;2023-09-12T08:36:15;16.40;;;9.30;;
70707;SDS011;58277;47.316;18.908;2023-09-12T08:38:39;19.65;;;9.20;;
70707;SDS011;58277;47.316;18.908;2023-09-12T08:41:03;15.30;;;8.48;;
70707;SDS011;58277;47.316;18.908;2023-09-12T08:43:26;20.45;;;8.63;;
70707;SDS011;58277;47.316;18.908;2023-09-12T08:45:49;18.02;;;9.02;;
70707;SDS011;58277;47.316;18.908;2023-09-12T08:48:13;20.73;;;8.52;;
70707;SDS011;58277;47.316;18.908;2023-09-12T08:50:38;19.80;;;9.13;;
70707;SDS011;58277;47.316;18.908;2023-09-12T08:53:02;15.70;;;8.30;;
70707;SDS011;58277;47.316;18.908;2023-09-12T08:55:30;20.42;;;8.50;;
70707;SDS011;58277;47.316;18.908;2023-09-12T08:57:55;18.27;;;8.13;;
70707;SDS011;58277;47.316;18.908;2023-09-12T09:00:20;19.17;;;8.05;;
70707;SDS011;58277;47.316;18.908;2023-09-12T09:02:45;14.95;;;7.90;;
70707;SDS011;58277;47.316;18.908;2023-09-12T09:05:10;20.25;;;7.63;;
70707;SDS011;58277;47.316;18.908;2023-09-12T09:07:37;18.88;;;7.57;;
70707;SDS011;58277;47.316;18.908;2023-09-12T09:10:02;15.02;;;7.65;;
70707;SDS011;58277;47.316;18.908;2023-09-12T09:12:29;20.55;;;7.53;;
70707;SDS011;58277;47.316;18.908;2023-09-12T09:14:51;19.65;;;7.15;;
70707;SDS011;58277;47.316;18.908;2023-09-12T09:17:14;17.42;;;7.20;;
70707;SDS011;58277;47.316;18.908;2023-09-12T09:19:56;16.92;;;6.70;;
70707;SDS011;58277;47.316;18.908;2023-09-12T09:22:18;20.25;;;6.80;;
70707;SDS011;58277;47.316;18.908;2023-09-12T09:24:41;19.42;;;6.72;;
70707;SDS011;58277;47.316;18.908;2023-09-12T09:27:04;17.00;;;6.65;;
70707;SDS011;58277;47.316;18.908;2023-09-12T09:29:27;16.15;;;6.55;;
70707;SDS011;58277;47.316;18.908;2023-09-12T09:31:54;16.83;;;7.15;;
70707;SDS011;58277;47.316;18.908;2023-09-12T09:34:17;13.60;;;6.15;;
70707;SDS011;58277;47.316;18.908;2023-09-12T09:36:48;18.98;;;6.82;;
70707;SDS011;58277;47.316;18.908;2023-09-12T09:39:18;14.38;;;6.60;;
70707;SDS011;58277;47.316;18.908;2023-09-12T09:41:44;16.73;;;6.70;;
70707;SDS011;58277;47.316;18.908;2023-09-12T09:44:10;17.85;;;6.85;;
70707;SDS011;58277;47.316;18.908;2023-09-12T09:46:33;16.77;;;6.72;;
70707;SDS011;58277;47.316;18.908;2023-09-12T09:48:57;16.52;;;6.40;;
70707;SDS011;58277;47.316;18.908;2023-09-12T09:51:21;16.38;;;6.63;;
70707;SDS011;58277;47.316;18.908;2023-09-12T09:53:44;11.10;;;6.47;;
70707;SDS011;58277;47.316;18.908;2023-09-12T09:58:55;15.15;;;7.00;;
70707;SDS011;58277;47.316;18.908;2023-09-12T10:01:22;10.35;;;6.50;;
70707;SDS011;58277;47.316;18.908;2023-09-12T10:03:50;12.60;;;6.85;;
70707;SDS011;58277;47.316;18.908;2023-09-12T10:06:14;11.75;;;6.45;;
70707;SDS011;58277;47.316;18.908;2023-09-12T10:08:46;16.88;;;7.13;;
70707;SDS011;58277;47.316;18.908;2023-09-12T10:11:13;10.82;;;6.70;;
70707;SDS011;58277;47.316;18.908;2023-09-12T10:13:38;11.95;;;6.70;;
70707;SDS011;58277;47.316;18.908;2023-09-12T10:16:16;12.48;;;6.45;;
70707;SDS011;58277;47.316;18.908;2023-09-12T10:18:53;12.05;;;6.32;;
70707;SDS011;58277;47.316;18.908;2023-09-12T10:21:21;13.45;;;6.60;;
70707;SDS011;58277;47.316;18.908;2023-09-12T10:23:50;13.68;;;7.20;;
70707;SDS011;58277;47.316;18.908;2023-09-12T10:26:13;11.30;;;7.18;;
70707;SDS011;58277;47.316;18.908;2023-09-12T10:28:37;11.77;;;6.38;;
70707;SDS011;58277;47.316;18.908;2023-09-12T10:31:05;11.57;;;6.20;;
70707;SDS011;58277;47.316;18.908;2023-09-12T10:33:30;15.35;;;6.60;;
70707;SDS011;58277;47.316;18.908;2023-09-12T10:35:54;8.38;;;6.22;;
70707;SDS011;58277;47.316;18.908;2023-09-12T10:38:17;11.77;;;6.88;;
70707;SDS011;58277;47.316;18.908;2023-09-12T10:40:42;9.35;;;5.88;;
70707;SDS011;58277;47.316;18.908;2023-09-12T10:43:06;10.00;;;6.30;;
70707;SDS011;58277;47.316;18.908;2023-09-12T10:45:31;10.70;;;6.03;;
70707;SDS011;58277;47.316;18.908;2023-09-12T10:47:57;11.50;;;6.03;;
70707;SDS011;58277;47.316;18.908;2023-09-12T10:50:20;9.55;;;5.90;;
70707;SDS011;58277;47.316;18.908;2023-09-12T10:52:43;11.18;;;6.20;;
70707;SDS011;58277;47.316;18.908;2023-09-12T10:55:07;11.47;;;5.93;;
70707;SDS011;58277;47.316;18.908;2023-09-12T10:57:30;11.30;;;6.30;;
70707;SDS011;58277;47.316;18.908;2023-09-12T11:02:32;13.05;;;6.43;;
70707;SDS011;58277;47.316;18.908;2023-09-12T11:04:57;14.25;;;6.55;;
70707;SDS011;58277;47.316;18.908;2023-09-12T11:10:15;12.18;;;5.78;;
70707;SDS011;58277;47.316;18.908;2023-09-12T11:12:38;11.40;;;5.97;;
70707;SDS011;58277;47.316;18.908;2023-09-12T11:15:05;13.82;;;6.63;;
70707;SDS011;58277;47.316;18.908;2023-09-12T11:17:28;9.77;;;5.32;;
70707;SDS011;58277;47.316;18.908;2023-09-12T11:19:52;11.17;;;5.70;;
70707;SDS011;58277;47.316;18.908;2023-09-12T11:24:48;12.15;;;6.13;;
70707;SDS011;58277;47.316;18.908;2023-09-12T11:27:11;11.00;;;5.90;;
70707;SDS011;58277;47.316;18.908;2023-09-12T11:29:38;15.88;;;6.05;;
70707;SDS011;58277;47.316;18.908;2023-09-12T11:32:02;11.67;;;5.60;;
70707;SDS011;58277;47.316;18.908;2023-09-12T11:34:25;12.80;;;5.22;;
70707;SDS011;58277;47.316;18.908;2023-09-12T11:36:50;8.18;;;5.47;;
70707;SDS011;58277;47.316;18.908;2023-09-12T11:39:28;9.55;;;5.60;;
70707;SDS011;58277;47.316;18.908;2023-09-12T11:41:52;11.18;;;5.35;;
70707;SDS011;58277;47.316;18.908;2023-09-12T11:44:18;10.13;;;5.03;;
70707;SDS011;58277;47.316;18.908;2023-09-12T11:46:43;9.90;;;4.97;;
70707;SDS011;58277;47.316;18.908;2023-09-12T11:49:09;9.20;;;5.47;;
70707;SDS011;58277;47.316;18.908;2023-09-12T11:51:32;9.80;;;5.20;;
70707;SDS011;58277;47.316;18.908;2023-09-12T11:53:54;10.15;;;5.60;;
70707;SDS011;58277;47.316;18.908;2023-09-12T11:56:19;13.23;;;5.50;;
70707;SDS011;58277;47.316;18.908;2023-09-12T11:58:41;15.93;;;5.53;;
70707;SDS011;58277;47.316;18.908;2023-09-12T12:01:05;9.77;;;5.40;;
70707;SDS011;58277;47.316;18.908;2023-09-12T12:03:29;9.93;;;5.32;;
70707;SDS011;58277;47.316;18.908;2023-09-12T12:05:53;11.38;;;5.57;;
70707;SDS011;58277;47.316;18.908;2023-09-12T12:08:17;14.40;;;5.50;;
70707;SDS011;58277;47.316;18.908;2023-09-12T12:10:43;10.43;;;5.75;;
70707;SDS011;58277;47.316;18.908;2023-09-12T12:13:12;11.77;;;5.18;;
70707;SDS011;58277;47.316;18.908;2023-09-12T12:15:38;10.05;;;5.20;;
70707;SDS011;58277;47.316;18.908;2023-09-12T12:18:01;11.45;;;5.72;;
70707;SDS011;58277;47.316;18.908;2023-09-12T12:20:24;14.30;;;5.73;;
70707;SDS011;58277;47.316;18.908;2023-09-12T12:22:47;19.00;;;5.40;;
70707;SDS011;58277;47.316;18.908;2023-09-12T12:25:10;11.82;;;5.45;;
70707;SDS011;58277;47.316;18.908;2023-09-12T12:27:40;9.52;;;5.05;;
70707;SDS011;58277;47.316;18.908;2023-09-12T12:30:07;13.70;;;5.57;;
70707;SDS011;58277;47.316;18.908;2023-09-12T12:38:12;16.05;;;5.85;;
70707;SDS011;58277;47.316;18.908;2023-09-12T12:40:38;10.02;;;5.43;;
70707;SDS011;58277;47.316;18.908;2023-09-12T12:43:18;13.45;;;6.32;;
70707;SDS011;58277;47.316;18.908;2023-09-12T12:45:51;14.73;;;5.47;;
70707;SDS011;58277;47.316;18.908;2023-09-12T12:48:16;16.30;;;6.47;;
70707;SDS011;58277;47.316;18.908;2023-09-12T12:50:39;13.27;;;5.50;;
70707;SDS011;58277;47.316;18.908;2023-09-12T12:53:05;15.73;;;5.30;;
70707;SDS011;58277;47.316;18.908;2023-09-12T12:55:27;8.95;;;5.10;;
70707;SDS011;58277;47.316;18.908;2023-09-12T12:57:50;14.38;;;5.45;;
70707;SDS011;58277;47.316;18.908;2023-09-12T13:00:16;13.32;;;5.40;;
70707;SDS011;58277;47.316;18.908;2023-09-12T13:02:42;13.77;;;5.40;;
70707;SDS011;58277;47.316;18.908;2023-09-12T13:05:19;12.75;;;5.07;;
70707;SDS011;58277;47.316;18.908;2023-09-12T13:07:52;10.55;;;4.65;;
70707;SDS011;58277;47.316;18.908;2023-09-12T13:10:15;10.47;;;5.00;;
70707;SDS011;58277;47.316;18.908;2023-09-12T13:12:38;14.23;;;4.95;;
70707;SDS011;58277;47.316;18.908;2023-09-12T13:15:01;11.98;;;5.50;;
70707;SDS011;58277;47.316;18.908;2023-09-12T13:17:24;14.43;;;5.40;;
70707;SDS011;58277;47.316;18.908;2023-09-12T13:19:47;12.20;;;5.80;;
70707;SDS011;58277;47.316;18.908;2023-09-12T13:22:09;12.10;;;5.00;;
70707;SDS011;58277;47.316;18.908;2023-09-12T13:24:32;13.73;;;5.10;;
70707;SDS011;58277;47.316;18.908;2023-09-12T13:26:55;13.20;;;5.15;;
70707;SDS011;58277;47.316;18.908;2023-09-12T13:29:18;12.18;;;4.95;;
70707;SDS011;58277;47.316;18.908;2023-09-12T13:31:40;15.15;;;4.80;;
70707;SDS011;58277;47.316;18.908;2023-09-12T13:34:03;15.63;;;4.60;;
70707;SDS011;58277;47.316;18.908;2023-09-12T13:36:26;13.30;;;5.10;;
70707;SDS011;58277;47.316;18.908;2023-09-12T13:38:49;12.93;;;4.82;;
70707;SDS011;58277;47.316;18.908;2023-09-12T13:41:13;12.10;;;4.90;;
70707;SDS011;58277;47.316;18.908;2023-09-12T13:43:36;17.73;;;4.78;;
70707;SDS011;58277;47.316;18.908;2023-09-12T13:45:59;13.95;;;4.53;;
70707;SDS011;58277;47.316;18.908;2023-09-12T13:48:22;10.82;;;4.55;;
70707;SDS011;58277;47.316;18.908;2023-09-12T13:50:45;11.73;;;4.90;;
70707;SDS011;58277;47.316;18.908;2023-09-12T13:53:08;12.30;;;4.88;;
70707;SDS011;58277;47.316;18.908;2023-09-12T13:55:31;14.43;;;5.13;;
70707;SDS011;58277;47.316;18.908;2023-09-12T13:57:54;10.23;;;5.63;;
70707;SDS011;58277;47.316;18.908;2023-09-12T14:00:17;15.82;;;5.20;;
70707;SDS011;58277;47.316;18.908;2023-09-12T14:02:47;16.85;;;5.38;;
70707;SDS011;58277;47.316;18.908;2023-09-12T14:05:11;13.80;;;5.47;;
70707;SDS011;58277;47.316;18.908;2023-09-12T14:07:36;12.48;;;5.68;;
70707;SDS011;58277;47.316;18.908;2023-09-12T14:10:01;14.95;;;5.55;;
70707;SDS011;58277;47.316;18.908;2023-09-12T14:12:25;13.85;;;5.78;;
70707;SDS011;58277;47.316;18.908;2023-09-12T14:14:50;16.23;;;5.80;;
70707;SDS011;58277;47.316;18.908;2023-09-12T14:17:26;13.20;;;5.72;;
70707;SDS011;58277;47.316;18.908;2023-09-12T14:19:51;15.90;;;5.85;;
70707;SDS011;58277;47.316;18.908;2023-09-12T14:22:14;14.20;;;5.40;;